Time;durP1;ratioP1;P1;durP2;ratioP2;P2;SDS_P1;SDS_P2;PMS_P1;PMS_P2;Temp;Humidity;BMP_temperature;BMP_pressure;BME280_temperature;BME280_humidity;BME280_pressure;Samples;Min_cycle;Max_cycle;Signal;HPM_P1;HPM_P2
2022/10/04 00:00:11;;;;;;;5.78;2.60;;;23.00;59.50;;;;;;7679131;22;79962;-46
2022/10/04 00:03:11;;;;;;;6.65;2.80;;;23.00;59.50;;;;;;7678710;22;80519;-46
2022/10/04 00:06:12;;;;;;;5.43;2.70;;;23.00;59.50;;;;;;7676344;22;80393;-50
2022/10/04 00:09:12;;;;;;;3.05;2.03;;;23.00;59.50;;;;;;7678586;22;80157;-46
2022/10/04 00:12:13;;;;;;;3.10;2.08;;;22.90;59.40;;;;;;7682428;22;80124;-49
2022/10/04 00:15:13;;;;;;;6.13;2.95;;;22.90;59.40;;;;;;7679133;22;80481;-46
2022/10/04 00:18:14;;;;;;;5.57;2.60;;;23.00;59.40;;;;;;7679540;22;80608;-48
2022/10/04 00:21:14;;;;;;;6.90;2.45;;;23.00;59.40;;;;;;7679095;22;81535;-55
2022/10/04 00:24:15;;;;;;;7.35;2.65;;;22.90;59.40;;;;;;7680833;22;80739;-54
2022/10/04 00:27:15;;;;;;;8.57;2.22;;;22.90;59.40;;;;;;7680378;22;80068;-54
2022/10/04 00:30:16;;;;;;;5.40;3.08;;;23.00;59.40;;;;;;7680372;22;80363;-54
2022/10/04 00:33:17;;;;;;;6.00;3.28;;;23.00;59.40;;;;;;7679887;22;80316;-54
2022/10/04 00:36:17;;;;;;;6.30;2.72;;;23.00;59.40;;;;;;7680622;22;81140;-55
2022/10/04 00:39:18;;;;;;;4.97;2.40;;;23.00;59.40;;;;;;7678797;22;81556;-56
2022/10/04 00:42:18;;;;;;;4.35;2.47;;;23.00;59.30;;;;;;7652895;22;80197;-54
2022/10/04 00:45:19;;;;;;;7.28;3.33;;;23.00;59.30;;;;;;7679569;22;80830;-57
2022/10/04 00:48:19;;;;;;;5.15;2.58;;;23.00;59.30;;;;;;7679429;22;80228;-54
2022/10/04 00:51:20;;;;;;;7.57;2.58;;;23.00;59.40;;;;;;7681115;22;80964;-55
2022/10/04 00:54:21;;;;;;;6.53;2.50;;;22.90;59.20;;;;;;7679333;22;80315;-52
2022/10/04 00:57:21;;;;;;;4.32;2.30;;;23.00;59.30;;;;;;7679565;22;80491;-55
2022/10/04 01:00:22;;;;;;;5.40;2.22;;;22.90;59.20;;;;;;7679072;22;80351;-53
2022/10/04 01:03:23;;;;;;;6.97;2.60;;;22.90;59.20;;;;;;7679592;22;80262;-53
2022/10/04 01:06:25;;;;;;;4.10;2.85;;;22.90;59.20;;;;;;7679286;22;80570;-53
2022/10/04 01:09:25;;;;;;;5.97;2.65;;;23.00;59.30;;;;;;7679528;22;80165;-51
2022/10/04 01:12:26;;;;;;;4.00;2.80;;;23.00;59.20;;;;;;7680698;22;80475;-56
2022/10/04 01:15:27;;;;;;;8.85;2.30;;;23.00;59.20;;;;;;7679264;22;80261;-54
2022/10/04 01:18:28;;;;;;;6.47;2.50;;;23.00;59.20;;;;;;7678973;22;80039;-55
2022/10/04 01:21:28;;;;;;;4.78;2.53;;;23.00;59.20;;;;;;7677976;22;80258;-55
2022/10/04 01:24:29;;;;;;;6.10;3.08;;;22.90;59.00;;;;;;7681061;22;80998;-53
2022/10/04 01:27:29;;;;;;;4.68;2.58;;;22.90;59.70;;;;;;7681371;22;80479;-54
2022/10/04 01:30:29;;;;;;;4.47;2.85;;;22.90;59.10;;;;;;7680843;22;81061;-55
2022/10/04 01:33:30;;;;;;;5.65;2.72;;;23.00;59.10;;;;;;7652607;22;81198;-53
2022/10/04 01:36:31;;;;;;;5.68;2.53;;;22.90;59.00;;;;;;7678184;22;80578;-44
2022/10/04 01:39:31;;;;;;;3.50;2.50;;;23.00;59.10;;;;;;7678216;22;80392;-44
2022/10/04 01:42:32;;;;;;;5.28;2.63;;;22.90;59.00;;;;;;7651817;22;80123;-44
2022/10/04 01:45:32;;;;;;;3.95;2.10;;;22.90;59.00;;;;;;7679666;22;80613;-44
2022/10/04 01:48:33;;;;;;;5.68;2.40;;;22.90;59.00;;;;;;7679043;22;87171;-43
2022/10/04 01:51:33;;;;;;;7.40;2.63;;;22.90;59.00;;;;;;7680905;22;81268;-44
2022/10/04 01:54:33;;;;;;;6.85;2.33;;;22.90;58.90;;;;;;7680690;22;80368;-58
2022/10/04 01:57:34;;;;;;;4.43;2.60;;;22.90;59.00;;;;;;7653786;22;81841;-58
2022/10/04 02:00:34;;;;;;;5.20;2.30;;;22.90;58.90;;;;;;7678863;22;82414;-57
2022/10/04 02:03:35;;;;;;;5.85;2.42;;;22.90;58.90;;;;;;7679266;22;81501;-58
2022/10/04 02:06:36;;;;;;;2.92;1.83;;;22.90;58.90;;;;;;7678601;22;81585;-58
2022/10/04 02:09:37;;;;;;;3.72;2.50;;;22.90;58.90;;;;;;7678927;22;81109;-55
2022/10/04 02:12:37;;;;;;;5.65;2.65;;;22.90;58.80;;;;;;7680164;22;80535;-56
2022/10/04 02:15:38;;;;;;;5.82;2.40;;;22.90;58.80;;;;;;7676626;22;81473;-58
2022/10/04 02:18:39;;;;;;;5.40;2.35;;;22.90;58.80;;;;;;7681219;22;80104;-57
2022/10/04 02:21:39;;;;;;;4.68;2.53;;;22.90;58.80;;;;;;7678520;22;81252;-56
2022/10/04 02:24:40;;;;;;;5.07;2.22;;;22.90;58.80;;;;;;7679969;22;80949;-57
2022/10/04 02:27:40;;;;;;;4.57;2.53;;;22.90;58.70;;;;;;7678790;22;80687;-58
2022/10/04 02:30:41;;;;;;;4.15;2.72;;;22.90;59.30;;;;;;7678716;22;80313;-58
2022/10/04 02:33:41;;;;;;;4.38;2.45;;;22.90;58.70;;;;;;7678220;22;81977;-57
2022/10/04 02:36:42;;;;;;;7.60;2.40;;;22.90;58.70;;;;;;7653329;22;81976;-56
2022/10/04 02:39:42;;;;;;;5.85;2.10;;;22.90;58.70;;;;;;7677281;22;80276;-56
2022/10/04 02:42:43;;;;;;;11.90;2.53;;;22.90;58.70;;;;;;7677537;22;80256;-57
2022/10/04 02:45:43;;;;;;;4.43;2.08;;;22.90;58.70;;;;;;7682023;22;80093;-57
2022/10/04 02:48:44;;;;;;;3.53;2.33;;;23.00;58.70;;;;;;7678647;22;81537;-47
2022/10/04 02:51:44;;;;;;;4.43;2.42;;;22.90;58.60;;;;;;7678399;22;80081;-52
2022/10/04 02:54:45;;;;;;;3.03;2.28;;;22.90;58.60;;;;;;7681470;22;80369;-47
2022/10/04 02:57:45;;;;;;;4.68;2.20;;;23.00;58.60;;;;;;7678398;22;81852;-47
2022/10/04 03:00:46;;;;;;;11.73;3.03;;;22.90;58.50;;;;;;7679370;22;80338;-49
2022/10/04 03:03:46;;;;;;;4.90;2.20;;;22.90;58.50;;;;;;7678063;22;80464;-46
2022/10/04 03:06:47;;;;;;;7.20;2.30;;;22.90;58.50;;;;;;7678787;22;81948;-46
2022/10/04 03:09:48;;;;;;;6.43;2.25;;;22.90;58.30;;;;;;7677453;22;80093;-48
2022/10/04 03:12:48;;;;;;;4.32;2.15;;;23.00;59.20;;;;;;7680823;22;80598;-45
2022/10/04 03:15:49;;;;;;;6.10;2.50;;;23.00;58.30;;;;;;7677475;22;80253;-49
2022/10/04 03:18:49;;;;;;;5.95;2.53;;;23.00;58.30;;;;;;7679245;22;81239;-46
2022/10/04 03:21:50;;;;;;;2.90;1.85;;;22.90;58.40;;;;;;7676718;22;81330;-47
2022/10/04 03:24:50;;;;;;;4.65;2.13;;;23.00;58.20;;;;;;7681473;22;80416;-48
2022/10/04 03:27:51;;;;;;;4.82;2.22;;;23.00;57.70;;;;;;7677176;22;80640;-50
2022/10/04 03:30:52;;;;;;;7.57;2.38;;;23.00;57.60;;;;;;7679520;22;80410;-49
2022/10/04 03:33:52;;;;;;;4.95;2.17;;;23.00;57.50;;;;;;7677420;22;80835;-48
2022/10/04 03:36:55;;;;;;;3.10;1.92;;;23.00;57.30;;;;;;7679679;22;80997;-51
2022/10/04 03:39:55;;;;;;;5.97;2.60;;;23.10;57.20;;;;;;7681093;22;81134;-48
2022/10/04 03:42:56;;;;;;;6.78;2.35;;;23.10;56.90;;;;;;7678313;22;81640;-53
2022/10/04 03:45:57;;;;;;;10.02;2.65;;;23.10;57.40;;;;;;7679452;22;80388;-56
2022/10/04 03:48:57;;;;;;;3.83;2.20;;;23.10;56.70;;;;;;7680041;22;80236;-56
2022/10/04 03:51:58;;;;;;;4.50;2.10;;;23.20;56.70;;;;;;7672328;22;81611;-54
2022/10/04 03:54:58;;;;;;;4.03;2.30;;;23.20;56.70;;;;;;7678868;22;81069;-55
2022/10/04 03:57:59;;;;;;;9.35;2.92;;;23.20;56.60;;;;;;7653722;22;82203;-56
2022/10/04 04:00:59;;;;;;;5.43;2.58;;;23.20;56.50;;;;;;7674546;22;80628;-48
2022/10/04 04:04:00;;;;;;;5.07;2.45;;;23.20;56.50;;;;;;7674595;22;81334;-48
2022/10/04 04:07:01;;;;;;;6.88;2.67;;;23.20;56.60;;;;;;7675579;22;80139;-48
2022/10/04 04:10:04;;;;;;;3.53;1.90;;;23.20;56.50;;;;;;7680240;22;80370;-45
2022/10/04 04:13:04;;;;;;;5.60;2.70;;;23.30;56.90;;;;;;7681008;22;80629;-49
2022/10/04 04:16:04;;;;;;;4.22;2.15;;;23.30;56.60;;;;;;7675139;22;80354;-51
2022/10/04 04:19:05;;;;;;;9.43;3.10;;;23.30;56.70;;;;;;7678413;22;81426;-47
2022/10/04 04:22:05;;;;;;;15.43;2.97;;;23.30;57.00;;;;;;7680207;22;80358;-52
2022/10/04 04:25:07;;;;;;;10.98;2.17;;;23.40;57.50;;;;;;7682582;22;80294;-54
2022/10/04 04:28:07;;;;;;;14.35;2.53;;;23.40;57.20;;;;;;7681279;22;80273;-59
2022/10/04 04:31:08;;;;;;;12.13;2.13;;;23.40;57.50;;;;;;7676031;22;85977;-56
2022/10/04 04:34:08;;;;;;;6.00;2.22;;;23.40;57.40;;;;;;7679521;22;80304;-55
2022/10/04 04:37:09;;;;;;;15.60;2.10;;;23.40;57.50;;;;;;7678756;22;81449;-57
2022/10/04 04:40:09;;;;;;;10.75;2.60;;;23.40;57.70;;;;;;7681752;22;80827;-56
2022/10/04 04:43:09;;;;;;;14.95;2.35;;;23.50;57.80;;;;;;7678723;22;81572;-50
2022/10/04 04:46:11;;;;;;;9.27;2.35;;;23.50;57.80;;;;;;7675476;22;80871;-58
2022/10/04 04:49:11;;;;;;;10.57;2.40;;;23.50;58.00;;;;;;7678969;22;82003;-57
2022/10/04 04:52:11;;;;;;;5.40;2.33;;;23.50;58.00;;;;;;7678327;22;80601;-56
2022/10/04 04:55:12;;;;;;;4.97;2.15;;;23.50;58.00;;;;;;7678917;22;80437;-57
2022/10/04 04:58:13;;;;;;;5.63;2.38;;;23.50;58.00;;;;;;7680990;22;86870;-55
2022/10/04 05:01:13;;;;;;;6.05;2.08;;;23.50;58.10;;;;;;7681708;22;81255;-50
2022/10/04 05:04:14;;;;;;;5.85;2.28;;;23.50;57.90;;;;;;7678047;22;80356;-57
2022/10/04 05:07:14;;;;;;;4.43;1.98;;;23.50;57.70;;;;;;7675764;22;80502;-54
2022/10/04 05:10:15;;;;;;;6.65;2.67;;;23.50;57.30;;;;;;7676182;22;80400;-55
2022/10/04 05:13:15;;;;;;;6.32;2.10;;;23.50;57.50;;;;;;7677793;22;81088;-56
2022/10/04 05:16:16;;;;;;;8.60;2.40;;;23.50;57.50;;;;;;7666416;22;80950;-60
2022/10/04 05:19:16;;;;;;;22.95;2.38;;;23.50;57.70;;;;;;7670274;22;80407;-60
2022/10/04 05:22:17;;;;;;;6.95;2.40;;;23.50;57.60;;;;;;7672789;22;80345;-58
2022/10/04 05:25:17;;;;;;;4.57;2.35;;;23.50;57.70;;;;;;7678567;22;81970;-61
2022/10/04 05:28:18;;;;;;;8.70;2.20;;;23.50;57.60;;;;;;7675397;22;80406;-59
2022/10/04 05:31:18;;;;;;;7.78;2.88;;;23.50;57.50;;;;;;7664825;22;80988;-59
2022/10/04 05:34:19;;;;;;;4.45;2.50;;;23.50;57.30;;;;;;7677602;22;80236;-59
2022/10/04 05:37:19;;;;;;;5.55;2.92;;;23.40;57.00;;;;;;7669263;22;81770;-60
2022/10/04 05:40:21;;;;;;;3.70;2.17;;;23.40;56.80;;;;;;7673106;22;79959;-59
2022/10/04 05:43:22;;;;;;;6.18;2.63;;;23.40;56.90;;;;;;7668734;22;79987;-60
2022/10/04 05:46:22;;;;;;;5.68;1.90;;;23.40;56.90;;;;;;7667844;22;80542;-60
2022/10/04 05:49:23;;;;;;;4.78;2.45;;;23.40;56.80;;;;;;7677460;22;86212;-61
2022/10/04 05:52:24;;;;;;;4.47;2.45;;;23.40;57.00;;;;;;7673039;22;80591;-57
2022/10/04 05:55:25;;;;;;;6.60;2.40;;;23.40;56.90;;;;;;7670670;22;80917;-54
2022/10/04 05:58:25;;;;;;;11.50;2.60;;;23.30;57.00;;;;;;7670499;22;80968;-57
2022/10/04 06:01:26;;;;;;;4.70;2.40;;;23.30;56.60;;;;;;7676229;22;80453;-57
2022/10/04 06:04:27;;;;;;;6.13;2.17;;;23.30;56.50;;;;;;7674654;22;81805;-57
2022/10/04 06:07:28;;;;;;;5.55;2.05;;;23.30;56.50;;;;;;7676995;22;80111;-58
2022/10/04 06:10:28;;;;;;;4.90;2.50;;;23.20;56.30;;;;;;7678943;22;80659;-61
2022/10/04 06:13:29;;;;;;;4.82;2.25;;;23.20;56.30;;;;;;7669127;22;80032;-69
2022/10/04 06:16:30;;;;;;;4.93;2.60;;;23.20;56.30;;;;;;7678163;22;81690;-64
2022/10/04 06:19:30;;;;;;;10.40;2.45;;;23.10;55.70;;;;;;7679492;22;81310;-62
2022/10/04 06:22:32;;;;;;;7.03;3.22;;;23.00;55.40;;;;;;7679310;22;80283;-61
2022/10/04 06:25:32;;;;;;;8.15;2.80;;;22.80;55.60;;;;;;7680233;22;80278;-63
2022/10/04 06:28:33;;;;;;;8.98;3.03;;;22.60;55.20;;;;;;7680362;22;80217;-61
2022/10/04 06:31:33;;;;;;;7.50;3.03;;;22.50;55.60;;;;;;7678525;22;82051;-61
2022/10/04 06:34:34;;;;;;;7.03;2.97;;;22.50;54.70;;;;;;7655563;22;80803;-61
2022/10/04 06:37:35;;;;;;;5.35;2.65;;;22.50;54.80;;;;;;7629896;22;81165;-60
2022/10/04 06:40:35;;;;;;;9.45;2.97;;;22.50;54.70;;;;;;7678399;22;82018;-61
2022/10/04 06:43:36;;;;;;;10.50;3.40;;;22.40;53.90;;;;;;7680294;22;80264;-62
2022/10/04 06:46:36;;;;;;;10.13;3.22;;;22.30;54.30;;;;;;7657366;22;82238;-61
2022/10/04 06:49:37;;;;;;;7.82;2.85;;;22.30;54.40;;;;;;7672084;22;80224;-61
2022/10/04 06:52:37;;;;;;;12.82;3.75;;;22.20;53.90;;;;;;7670848;22;80648;-61
2022/10/04 06:55:38;;;;;;;9.48;3.30;;;22.20;53.70;;;;;;7672194;22;87518;-62
2022/10/04 06:58:38;;;;;;;8.55;3.22;;;22.10;53.90;;;;;;7678073;22;80287;-59
2022/10/04 07:01:39;;;;;;;9.27;3.90;;;22.10;53.50;;;;;;7679293;22;80470;-60
2022/10/04 07:04:39;;;;;;;10.63;4.03;;;21.90;54.20;;;;;;7678454;22;81681;-61
2022/10/04 07:07:40;;;;;;;5.30;3.55;;;22.10;53.90;;;;;;7676994;22;80671;-61
2022/10/04 07:10:41;;;;;;;9.48;3.85;;;22.10;53.60;;;;;;7678491;22;80466;-62
2022/10/04 07:13:41;;;;;;;13.73;4.00;;;22.00;53.70;;;;;;7652724;22;81158;-63
2022/10/04 07:16:42;;;;;;;8.10;3.00;;;22.00;53.60;;;;;;7670124;22;80893;-61
2022/10/04 07:19:43;;;;;;;11.55;3.20;;;21.90;53.80;;;;;;7673797;22;80376;-62
2022/10/04 07:22:43;;;;;;;7.70;2.70;;;21.90;54.10;;;;;;7679514;22;79958;-62
2022/10/04 07:25:44;;;;;;;8.10;3.00;;;21.70;53.70;;;;;;7657919;22;81031;-61
2022/10/04 07:32:04;;;;;;;13.18;3.85;;;21.70;53.40;;;;;;7675764;22;80583;-61
2022/10/04 07:35:05;;;;;;;7.32;3.42;;;21.70;53.60;;;;;;7681606;22;80321;-61
2022/10/04 07:38:05;;;;;;;12.00;3.03;;;21.80;53.40;;;;;;7677032;22;81990;-61
2022/10/04 07:41:08;;;;;;;12.60;3.38;;;21.80;53.20;;;;;;7679133;22;80275;-61
2022/10/04 07:44:09;;;;;;;10.07;3.60;;;21.80;53.10;;;;;;7677876;22;81672;-63
2022/10/04 07:47:09;;;;;;;6.53;2.95;;;21.80;53.10;;;;;;7675832;22;80113;-61
2022/10/04 07:50:10;;;;;;;9.65;3.53;;;21.80;53.60;;;;;;7672335;22;81502;-60
2022/10/04 07:53:11;;;;;;;4.15;2.78;;;21.80;53.00;;;;;;7674177;22;80713;-61
2022/10/04 07:56:12;;;;;;;8.57;2.95;;;21.70;53.00;;;;;;7671815;22;81150;-61
2022/10/04 07:59:13;;;;;;;9.13;3.03;;;21.70;53.10;;;;;;7672831;22;80760;-61
2022/10/04 08:02:13;;;;;;;12.30;4.05;;;21.70;53.20;;;;;;7672437;22;83452;-61
2022/10/04 08:05:14;;;;;;;4.82;2.65;;;21.80;53.00;;;;;;7677982;22;80409;-62
2022/10/04 08:08:15;;;;;;;6.18;3.05;;;21.80;52.80;;;;;;7680135;22;80744;-62
2022/10/04 08:11:16;;;;;;;3.65;2.40;;;21.80;53.10;;;;;;7679309;22;80717;-62
2022/10/04 08:14:16;;;;;;;9.68;2.83;;;21.90;52.90;;;;;;7675864;22;81397;-62
2022/10/04 08:17:17;;;;;;;9.05;3.17;;;21.80;52.80;;;;;;7677686;22;80158;-61
2022/10/04 08:20:18;;;;;;;8.18;3.28;;;21.80;52.80;;;;;;7651513;22;83073;-62
2022/10/04 08:23:18;;;;;;;6.75;3.15;;;21.70;52.60;;;;;;7675951;22;80397;-61
2022/10/04 08:26:19;;;;;;;7.22;2.85;;;21.50;53.40;;;;;;7679407;22;80514;-61
2022/10/04 08:32:38;;;;;;;12.57;3.67;;;21.60;53.20;;;;;;7678646;22;81215;-63
2022/10/04 08:35:39;;;;;;;8.57;2.95;;;21.60;53.00;;;;;;7680320;22;80015;-62
2022/10/04 08:38:41;;;;;;;6.97;2.72;;;21.60;53.10;;;;;;7681367;22;80176;-59
2022/10/04 08:41:41;;;;;;;6.50;2.58;;;21.70;52.80;;;;;;7680863;22;80285;-60
2022/10/04 08:44:42;;;;;;;13.38;3.58;;;21.70;52.70;;;;;;7678723;22;80959;-58
2022/10/04 08:47:43;;;;;;;12.55;3.88;;;21.60;52.70;;;;;;7681822;22;80908;-59
2022/10/04 08:50:43;;;;;;;6.47;3.30;;;21.60;52.90;;;;;;7682328;22;81478;-59
2022/10/04 08:53:44;;;;;;;8.25;2.97;;;21.70;52.50;;;;;;7678905;22;80266;-58
2022/10/04 08:56:45;;;;;;;7.60;3.00;;;21.60;52.80;;;;;;7674369;22;80897;-62
2022/10/04 08:59:45;;;;;;;7.45;3.22;;;21.70;52.80;;;;;;7679636;22;80961;-61
2022/10/04 09:02:46;;;;;;;9.60;3.53;;;21.70;52.90;;;;;;7654299;22;82034;-62
2022/10/04 09:05:47;;;;;;;11.20;2.70;;;21.70;52.70;;;;;;7679898;22;80245;-62
2022/10/04 09:08:47;;;;;;;5.53;3.17;;;21.70;52.50;;;;;;7677309;22;80272;-62
2022/10/04 09:11:49;;;;;;;8.70;3.20;;;21.70;52.40;;;;;;7681621;22;80884;-62
2022/10/04 09:14:50;;;;;;;6.07;2.60;;;21.80;53.20;;;;;;7678856;22;81358;-62
2022/10/04 09:17:50;;;;;;;22.02;3.45;;;21.70;52.50;;;;;;7681051;22;80236;-60
2022/10/04 09:20:51;;;;;;;8.52;3.20;;;21.70;52.40;;;;;;7679314;22;80503;-61
2022/10/04 09:23:52;;;;;;;10.00;3.30;;;21.50;52.70;;;;;;7654046;22;80288;-61
2022/10/04 09:26:53;;;;;;;12.10;3.70;;;21.60;53.00;;;;;;7681897;22;80535;-61
2022/10/04 09:29:53;;;;;;;16.15;2.88;;;21.60;52.80;;;;;;7680594;22;80578;-62
2022/10/04 09:32:56;;;;;;;11.77;2.75;;;21.70;52.60;;;;;;7680383;22;80418;-60
2022/10/04 09:35:57;;;;;;;12.10;3.20;;;21.70;52.70;;;;;;7679042;22;80353;-61
2022/10/04 09:38:57;;;;;;;13.40;3.22;;;21.80;52.40;;;;;;7678639;22;79906;-59
2022/10/04 09:41:58;;;;;;;13.98;4.07;;;21.80;52.20;;;;;;7679036;22;80377;-59
2022/10/04 09:45:04;;;;;;;10.32;2.90;;;21.80;52.30;;;;;;7679741;22;80759;-60
2022/10/04 09:48:06;;;;;;;12.63;3.58;;;21.90;52.10;;;;;;7682513;22;81761;-59
2022/10/04 09:51:07;;;;;;;9.35;3.30;;;21.90;52.30;;;;;;7679444;22;80404;-60
2022/10/04 09:54:07;;;;;;;13.68;3.65;;;21.90;52.70;;;;;;7680565;22;80372;-59
2022/10/04 09:57:08;;;;;;;12.20;3.55;;;21.90;52.30;;;;;;7677519;22;80257;-59
2022/10/04 10:00:09;;;;;;;11.85;4.18;;;21.90;52.00;;;;;;7678853;22;80428;-59
2022/10/04 10:03:14;;;;;;;12.57;3.53;;;21.90;52.20;;;;;;7654219;22;80265;-60
2022/10/04 10:06:15;;;;;;;6.05;2.45;;;21.90;52.10;;;;;;7680029;22;80715;-60
2022/10/04 10:09:17;;;;;;;7.85;2.58;;;21.80;52.20;;;;;;7648966;22;81739;-60
2022/10/04 10:15:37;;;;;;;8.00;3.70;;;21.90;52.30;;;;;;7677528;22;82285;-58
2022/10/04 10:18:38;;;;;;;8.77;2.92;;;22.00;52.10;;;;;;7653712;22;81817;-59
2022/10/04 10:21:39;;;;;;;7.78;2.83;;;22.00;52.40;;;;;;7679309;22;80459;-59
2022/10/04 10:24:39;;;;;;;6.82;2.50;;;22.00;52.30;;;;;;7680433;22;80162;-61
2022/10/04 10:27:40;;;;;;;9.68;3.67;;;22.00;52.30;;;;;;7678480;22;80118;-59
2022/10/04 10:30:40;;;;;;;9.90;3.00;;;22.10;52.30;;;;;;7678825;22;81400;-60
2022/10/04 10:33:41;;;;;;;9.20;3.03;;;22.10;52.30;;;;;;7681488;22;80243;-59
2022/10/04 10:36:42;;;;;;;19.90;4.53;;;22.10;52.40;;;;;;7677995;22;80587;-60
2022/10/04 10:39:43;;;;;;;8.50;3.75;;;22.10;53.50;;;;;;7676249;22;79974;-60
2022/10/04 10:42:43;;;;;;;13.77;4.75;;;22.20;53.00;;;;;;7660455;22;80417;-59
2022/10/04 10:45:44;;;;;;;18.10;5.13;;;22.20;52.80;;;;;;7651050;22;81267;-52
2022/10/04 10:48:45;;;;;;;15.73;5.28;;;22.20;52.70;;;;;;7650471;22;80293;-47
2022/10/04 10:51:45;;;;;;;13.55;4.63;;;22.20;52.60;;;;;;7674715;22;81224;-47
2022/10/04 10:54:46;;;;;;;12.18;4.18;;;22.20;52.60;;;;;;7677870;22;80339;-47
2022/10/04 10:57:46;;;;;;;19.98;4.35;;;22.10;52.40;;;;;;7665364;22;81230;-47
2022/10/04 11:00:49;;;;;;;15.05;3.25;;;22.10;52.30;;;;;;7677680;22;80764;-48
2022/10/04 11:03:49;;;;;;;9.65;3.35;;;22.20;52.80;;;;;;7676140;22;80489;-47
2022/10/04 11:06:50;;;;;;;9.68;3.13;;;22.10;52.40;;;;;;7676986;22;80184;-49
2022/10/04 11:09:50;;;;;;;8.85;3.05;;;22.20;52.10;;;;;;7677357;22;81383;-52
2022/10/04 11:12:51;;;;;;;6.53;2.90;;;22.20;51.90;;;;;;7676775;22;80103;-47
2022/10/04 11:15:51;;;;;;;6.43;2.88;;;22.30;51.90;;;;;;7677705;22;80559;-51
2022/10/04 11:18:53;;;;;;;11.80;2.70;;;22.40;51.20;;;;;;7672089;22;80468;-49
2022/10/04 11:21:54;;;;;;;5.38;2.33;;;22.40;51.00;;;;;;7672873;22;80503;-49
2022/10/04 11:24:54;;;;;;;7.50;2.60;;;22.50;50.50;;;;;;7677990;22;80329;-49
2022/10/04 11:27:55;;;;;;;3.78;2.00;;;22.50;50.30;;;;;;7676109;22;81259;-51
2022/10/04 11:30:55;;;;;;;5.88;2.38;;;22.60;50.10;;;;;;7676715;22;80116;-48
2022/10/04 11:33:56;;;;;;;4.35;1.63;;;22.70;49.70;;;;;;7675957;22;81872;-50
2022/10/04 11:36:58;;;;;;;8.40;2.67;;;22.80;49.30;;;;;;7652235;22;81916;-49
2022/10/04 11:39:58;;;;;;;4.80;2.13;;;22.70;49.10;;;;;;7676979;22;82013;-49
2022/10/04 11:42:59;;;;;;;4.60;2.20;;;22.70;49.30;;;;;;7677789;22;80234;-48
2022/10/04 11:46:00;;;;;;;3.63;1.58;;;22.70;48.80;;;;;;7651681;22;83095;-49
2022/10/04 11:49:01;;;;;;;3.33;1.80;;;22.80;48.40;;;;;;7676834;22;81145;-50
2022/10/04 11:52:03;;;;;;;4.70;1.88;;;22.80;48.30;;;;;;7677042;22;80382;-48
2022/10/04 11:55:06;;;;;;;3.58;1.90;;;22.80;48.30;;;;;;7678029;22;80226;-50
2022/10/04 11:58:08;;;;;;;3.35;1.88;;;22.70;48.40;;;;;;7678763;22;80472;-52
2022/10/04 12:01:08;;;;;;;5.47;2.42;;;22.80;48.40;;;;;;7672425;22;79965;-58
2022/10/04 12:04:09;;;;;;;7.78;2.92;;;22.70;48.20;;;;;;7648831;22;80629;-59
2022/10/04 12:07:09;;;;;;;8.05;2.58;;;22.70;48.30;;;;;;7675527;22;81336;-59
2022/10/04 12:10:10;;;;;;;7.30;2.25;;;22.50;48.70;;;;;;7680793;22;80541;-58
2022/10/04 12:13:10;;;;;;;5.35;2.40;;;22.50;48.50;;;;;;7680101;22;82015;-59
2022/10/04 12:16:11;;;;;;;7.13;3.03;;;22.40;48.80;;;;;;7653913;22;81898;-58
2022/10/04 12:19:14;;;;;;;3.92;1.85;;;22.40;49.20;;;;;;7678940;22;81742;-59
2022/10/04 12:22:14;;;;;;;5.70;2.13;;;22.40;48.90;;;;;;7677767;22;80685;-59
2022/10/04 12:25:15;;;;;;;7.90;2.10;;;22.50;48.90;;;;;;7679545;22;82022;-59
2022/10/04 12:28:15;;;;;;;5.07;1.80;;;22.50;48.70;;;;;;7682305;22;80408;-59
2022/10/04 12:31:16;;;;;;;3.75;1.80;;;22.40;48.50;;;;;;7678821;22;80518;-59
2022/10/04 12:34:18;;;;;;;2.63;1.80;;;22.40;48.50;;;;;;7680516;22;81362;-59
2022/10/04 12:37:18;;;;;;;6.72;1.75;;;22.50;48.30;;;;;;7679019;22;80294;-63
2022/10/04 12:40:19;;;;;;;5.70;1.95;;;22.40;48.40;;;;;;7675943;22;81421;-64
2022/10/04 12:43:20;;;;;;;5.80;2.08;;;22.40;48.60;;;;;;7673354;22;80453;-62
2022/10/04 12:46:21;;;;;;;8.93;2.30;;;22.40;48.80;;;;;;7674595;22;80836;-63
2022/10/04 12:49:21;;;;;;;9.30;3.22;;;22.40;48.80;;;;;;7673771;22;81142;-63
2022/10/04 12:52:26;;;;;;;7.18;2.38;;;22.30;49.00;;;;;;7676651;22;80873;-64
2022/10/04 12:55:27;;;;;;;5.17;2.40;;;22.30;49.30;;;;;;7675910;22;81122;-63
2022/10/04 12:58:29;;;;;;;5.57;2.40;;;22.50;48.80;;;;;;7679709;22;80761;-62
2022/10/04 13:01:29;;;;;;;7.18;2.38;;;22.50;48.80;;;;;;7679054;22;80032;-62
2022/10/04 13:04:30;;;;;;;5.38;2.13;;;22.60;48.60;;;;;;7680215;22;81523;-62
2022/10/04 13:07:30;;;;;;;9.30;2.90;;;22.70;48.40;;;;;;7679040;22;81196;-62
2022/10/04 13:10:31;;;;;;;6.20;2.13;;;22.70;48.30;;;;;;7677445;22;80351;-62
2022/10/04 13:13:31;;;;;;;4.40;2.20;;;22.70;48.40;;;;;;7679336;22;80405;-61
2022/10/04 13:16:32;;;;;;;7.13;2.42;;;22.80;48.20;;;;;;7679557;22;80908;-60
2022/10/04 13:19:32;;;;;;;7.00;2.10;;;22.80;48.20;;;;;;7678183;22;80477;-59
2022/10/04 13:22:33;;;;;;;4.40;2.25;;;22.80;48.20;;;;;;7676563;22;80796;-59
2022/10/04 13:25:33;;;;;;;4.88;2.03;;;22.90;48.30;;;;;;7645808;22;81742;-60
2022/10/04 13:28:34;;;;;;;5.75;2.53;;;22.90;48.20;;;;;;7674611;22;80993;-61
2022/10/04 13:31:34;;;;;;;6.15;2.17;;;22.90;48.40;;;;;;7680182;22;80212;-61
2022/10/04 13:34:35;;;;;;;3.28;2.15;;;22.90;48.60;;;;;;7680230;22;81712;-59
2022/10/04 13:37:35;;;;;;;3.22;1.90;;;22.80;48.80;;;;;;7672762;22;80881;-61
2022/10/04 13:40:36;;;;;;;4.95;2.60;;;22.80;48.40;;;;;;7678899;22;80428;-60
2022/10/04 13:43:36;;;;;;;6.28;2.70;;;22.90;48.50;;;;;;7677374;22;80098;-60
2022/10/04 13:46:38;;;;;;;11.68;2.05;;;22.90;48.30;;;;;;7678517;22;80557;-60
2022/10/04 13:49:38;;;;;;;3.83;2.30;;;23.00;48.60;;;;;;7679703;22;80257;-62
2022/10/04 13:59:34;;;;;;;3.03;1.60;;;23.00;48.60;;;;;;7677194;22;81139;-63
2022/10/04 14:02:34;;;;;;;6.32;2.05;;;23.00;48.70;;;;;;7674240;22;80851;-60
2022/10/04 14:05:36;;;;;;;4.07;2.15;;;23.00;48.70;;;;;;7679844;22;80420;-67
2022/10/04 14:08:37;;;;;;;5.30;2.28;;;23.00;48.90;;;;;;7675569;22;80415;-64
2022/10/04 14:11:37;;;;;;;8.65;2.03;;;23.00;48.90;;;;;;7670198;22;80404;-58
2022/10/04 14:14:38;;;;;;;3.25;1.75;;;23.00;49.50;;;;;;7677974;22;79958;-56
2022/10/04 14:17:40;;;;;;;4.95;2.03;;;23.00;50.20;;;;;;7681334;22;80595;-57
2022/10/04 14:20:41;;;;;;;6.60;2.05;;;23.10;49.90;;;;;;7681247;22;80062;-53
2022/10/04 14:23:45;;;;;;;3.03;1.75;;;23.20;49.80;;;;;;7680883;22;80671;-57
2022/10/04 14:26:45;;;;;;;7.50;2.17;;;23.30;49.70;;;;;;7677890;22;80958;-53
2022/10/04 14:29:46;;;;;;;7.20;1.98;;;23.30;49.50;;;;;;7678539;22;80050;-49
2022/10/04 14:32:47;;;;;;;13.52;2.17;;;23.40;49.60;;;;;;7678178;22;80237;-51
2022/10/04 14:35:48;;;;;;;2.95;1.90;;;23.40;49.60;;;;;;7668457;22;80868;-49
2022/10/04 14:38:51;;;;;;;4.65;1.92;;;23.40;49.90;;;;;;7664577;22;80305;-51
2022/10/04 14:41:51;;;;;;;6.63;2.20;;;23.30;50.20;;;;;;7662516;22;80524;-48
2022/10/04 14:44:52;;;;;;;2.83;1.80;;;23.30;50.10;;;;;;7644595;22;81912;-51
2022/10/04 14:47:52;;;;;;;4.15;1.85;;;23.30;50.10;;;;;;7669341;22;80283;-50
2022/10/04 14:50:56;;;;;;;5.88;1.95;;;23.30;50.10;;;;;;7675645;22;81514;-46
2022/10/04 14:53:58;;;;;;;2.45;1.52;;;23.30;49.80;;;;;;7670995;22;80477;-53
2022/10/04 14:56:59;;;;;;;3.25;1.90;;;23.30;49.80;;;;;;7661495;22;81011;-48
2022/10/04 15:00:00;;;;;;;17.13;2.20;;;23.30;49.50;;;;;;7667243;22;80608;-51
2022/10/04 15:03:00;;;;;;;4.55;2.22;;;23.40;49.30;;;;;;7672246;22;81240;-46
2022/10/04 15:06:02;;;;;;;20.23;2.13;;;23.40;49.30;;;;;;7673141;22;80315;-46
2022/10/04 15:09:02;;;;;;;3.05;1.55;;;23.40;49.40;;;;;;7663261;22;80767;-49
2022/10/04 15:12:03;;;;;;;4.45;2.10;;;23.40;49.20;;;;;;7653738;22;80275;-49
2022/10/04 15:15:04;;;;;;;6.55;2.78;;;23.40;49.10;;;;;;7673919;22;82339;-46
2022/10/04 15:18:06;;;;;;;23.38;9.70;;;23.40;49.00;;;;;;7681038;22;81081;-48
2022/10/04 15:21:06;;;;;;;57.58;23.63;;;23.50;49.10;;;;;;7679879;22;80414;-57
2022/10/04 15:24:07;;;;;;;111.10;42.08;;;23.50;49.30;;;;;;7677445;22;83027;-55
2022/10/04 15:27:07;;;;;;;151.65;58.30;;;23.50;49.30;;;;;;7676459;22;83567;-57
2022/10/04 15:30:08;;;;;;;98.15;36.22;;;23.40;49.30;;;;;;7676684;22;84270;-58
2022/10/04 15:33:10;;;;;;;77.60;31.75;;;23.40;49.40;;;;;;7675992;22;84828;-56
2022/10/04 15:36:10;;;;;;;126.05;51.72;;;23.40;49.50;;;;;;7676935;22;83325;-55
2022/10/04 15:39:11;;;;;;;136.82;59.25;;;23.40;49.60;;;;;;7672900;22;83191;-55
2022/10/04 15:42:11;;;;;;;121.40;54.92;;;23.30;49.60;;;;;;7675484;22;83128;-55
2022/10/04 15:45:16;;;;;;;120.45;47.88;;;23.40;49.80;;;;;;7677776;22;83033;-55
2022/10/04 15:48:17;;;;;;;99.88;42.45;;;23.40;50.00;;;;;;7677649;22;83549;-59
2022/10/04 15:51:18;;;;;;;85.55;35.28;;;23.30;49.80;;;;;;7676069;22;82944;-55